createdAt,value
2022-11-20T00:02:31.023Z,101806.47
2022-11-20T00:05:25.256Z,101802.91
2022-11-20T00:08:01.274Z,101796.97
2022-11-20T00:10:39.053Z,101795.56
2022-11-20T00:13:27.322Z,101786.66
2022-11-20T00:16:16.325Z,101794.66
2022-11-20T00:18:55.396Z,101783.47
2022-11-20T00:21:45.621Z,101775.41
2022-11-20T00:24:32.598Z,101793.56
2022-11-20T00:27:16.165Z,101795.97
2022-11-20T00:30:22.330Z,101778.97
2022-11-20T00:33:12.424Z,101792.06
2022-11-20T00:39:02.371Z,101782.69
2022-11-20T00:41:48.208Z,101783.34
2022-11-20T00:47:19.472Z,101774.53
2022-11-20T00:50:21.488Z,101779.81
2022-11-20T00:53:10.531Z,101775.19
2022-11-20T00:56:03.887Z,101775.94
2022-11-20T00:58:49.052Z,101767.53
2022-11-20T01:01:28.914Z,101774.53
2022-11-20T01:04:12.630Z,101765.34
2022-11-20T01:06:57.118Z,101767.22
2022-11-20T01:09:40.895Z,101760.31
2022-11-20T01:12:23.860Z,101766.06
2022-11-20T01:15:17.653Z,101754.19
2022-11-20T01:18:21.177Z,101756.00
2022-11-20T01:21:14.539Z,101751.19
2022-11-20T01:24:03.296Z,101655.09
2022-11-20T01:26:44.282Z,101738.56
2022-11-20T01:29:36.095Z,101733.94
2022-11-20T01:32:20.324Z,101737.75
2022-11-20T01:35:02.375Z,101726.78
2022-11-20T01:37:46.001Z,101723.59
2022-11-20T01:40:40.332Z,101718.50
2022-11-20T01:43:41.912Z,101670.66
2022-11-20T01:46:32.415Z,101712.81
2022-11-20T01:49:10.487Z,101692.13
2022-11-20T01:51:58.437Z,101697.69
2022-11-20T01:54:42.006Z,101697.59
2022-11-20T01:57:17.196Z,101690.53
2022-11-20T02:00:06.507Z,101675.16
2022-11-20T02:02:59.576Z,101666.47
2022-11-20T02:05:54.946Z,101619.31
2022-11-20T02:08:31.817Z,101642.53
2022-11-20T02:11:25.663Z,101645.28
2022-11-20T02:14:09.423Z,101649.66
2022-11-20T02:16:44.408Z,101647.97
2022-11-20T02:19:30.806Z,101608.63
2022-11-20T02:22:14.627Z,101619.44
2022-11-20T02:25:06.722Z,101612.41
2022-11-20T02:27:44.565Z,101614.84
2022-11-20T02:30:21.539Z,101616.53
2022-11-20T02:33:17.819Z,101611.25
2022-11-20T02:36:25.080Z,101581.59
2022-11-20T02:39:31.520Z,101584.56
2022-11-20T02:42:15.313Z,101576.53
2022-11-20T02:45:03.279Z,101527.50
2022-11-20T02:51:02.030Z,101564.31
2022-11-20T02:53:38.035Z,101556.34
2022-11-20T02:56:44.773Z,101556.28
2022-11-20T02:59:36.056Z,101549.03
2022-11-20T03:02:14.916Z,101555.50
2022-11-20T03:04:51.473Z,101547.59
2022-11-20T03:07:37.954Z,101530.84
2022-11-20T03:13:55.881Z,101541.50
2022-11-20T03:16:38.675Z,101534.56
2022-11-20T03:19:17.254Z,101516.25
2022-11-20T03:21:59.014Z,101515.34
2022-11-20T03:24:49.366Z,101502.44
2022-11-20T03:30:23.941Z,101502.28
2022-11-20T03:33:25.930Z,101494.38
2022-11-20T03:36:19.623Z,101487.19
2022-11-20T03:39:03.218Z,101485.41
2022-11-20T03:41:56.591Z,101478.22
2022-11-20T03:44:31.523Z,101458.16
2022-11-20T03:47:25.662Z,101467.72
2022-11-20T03:50:12.186Z,101481.38
2022-11-20T03:52:57.752Z,101476.00
2022-11-20T03:55:50.267Z,101484.44
2022-11-20T03:58:44.341Z,101476.72
2022-11-20T04:01:24.429Z,101452.66
2022-11-20T04:10:00.478Z,101474.72
2022-11-20T04:12:46.862Z,101464.00
2022-11-20T04:15:28.447Z,101455.25
2022-11-20T04:18:06.239Z,101447.41
2022-11-20T04:20:57.319Z,101448.13
2022-11-20T04:23:51.790Z,101446.38
2022-11-20T04:26:26.252Z,101436.81
2022-11-20T04:29:17.487Z,101432.91
2022-11-20T04:32:20.053Z,101398.66
2022-11-20T04:35:00.797Z,101437.31
2022-11-20T04:37:43.848Z,101437.31
2022-11-20T04:40:33.071Z,101426.19
2022-11-20T04:43:18.745Z,101419.38
2022-11-20T04:46:06.216Z,101420.16
2022-11-20T04:49:10.992Z,101410.97
2022-11-20T04:52:05.971Z,101417.22
2022-11-20T04:57:43.994Z,101425.97
2022-11-20T05:00:22.655Z,101418.94
2022-11-20T05:03:08.219Z,101420.53
2022-11-20T05:05:54.900Z,101419.47
2022-11-20T05:08:42.834Z,101417.72
2022-11-20T05:11:24.293Z,101415.19
2022-11-20T05:14:16.157Z,101422.03
2022-11-20T05:17:08.871Z,101418.50
2022-11-20T05:19:59.889Z,101427.06
2022-11-20T05:22:47.628Z,101420.81
2022-11-20T05:25:37.406Z,101419.78
2022-11-20T05:28:13.427Z,101418.06
2022-11-20T05:31:30.741Z,101426.53
2022-11-20T05:34:17.362Z,101412.59
2022-11-20T05:36:58.601Z,101414.34
2022-11-20T05:39:41.576Z,101421.19
2022-11-20T05:42:40.767Z,101420.97
2022-11-20T05:45:35.508Z,101416.50
2022-11-20T05:48:29.682Z,101411.09
2022-11-20T05:51:06.854Z,101296.06
2022-11-20T05:53:48.268Z,101391.38
2022-11-20T05:56:34.889Z,101400.31
2022-11-20T05:59:22.106Z,101403.91
2022-11-20T06:02:07.412Z,101401.09
2022-11-20T06:05:33.533Z,101413.38
2022-11-20T06:08:19.679Z,101412.44
2022-11-20T06:10:55.965Z,101409.69
2022-11-20T06:13:42.812Z,101409.59
2022-11-20T06:16:42.622Z,101400.06
2022-11-20T06:19:33.869Z,101399.06
2022-11-20T06:22:08.574Z,101392.16
2022-11-20T06:28:25.866Z,101385.13
2022-11-20T06:31:01.876Z,101386.69
2022-11-20T06:33:49.427Z,101389.97
2022-11-20T06:36:51.548Z,101342.63
2022-11-20T06:39:40.868Z,101394.00
2022-11-20T06:42:30.843Z,101392.06
2022-11-20T06:45:05.528Z,101388.41
2022-11-20T06:47:49.223Z,101393.31
2022-11-20T06:50:38.696Z,101387.78
2022-11-20T06:53:33.078Z,101388.53
2022-11-20T06:56:09.867Z,101374.41
2022-11-20T06:59:11.062Z,101380.28
2022-11-20T07:01:51.846Z,101379.34
2022-11-20T07:04:40.546Z,101374.28
2022-11-20T07:07:23.281Z,101368.31
2022-11-20T07:10:01.377Z,101354.41
2022-11-20T07:12:49.027Z,101362.66
2022-11-20T07:15:26.410Z,101356.25
2022-11-20T07:18:18.093Z,101341.91
2022-11-20T07:20:57.127Z,101341.19
2022-11-20T07:23:48.171Z,101349.81
2022-11-20T07:26:22.897Z,101343.00
2022-11-20T07:29:09.005Z,101346.63
2022-11-20T07:34:51.525Z,101361.09
2022-11-20T07:37:38.849Z,101253.22
2022-11-20T07:40:47.830Z,101346.97
2022-11-20T07:43:54.854Z,101345.81
2022-11-20T07:46:38.897Z,101340.66
2022-11-20T07:49:24.904Z,101340.66
2022-11-20T07:52:10.611Z,101339.59
2022-11-20T07:55:13.445Z,101330.03
2022-11-20T07:58:23.897Z,101316.41
2022-11-20T08:01:19.948Z,101340.00
2022-11-20T08:04:13.036Z,101318.50
2022-11-20T08:07:00.723Z,101318.75
2022-11-20T08:09:51.124Z,101310.31
2022-11-20T08:16:00.239Z,101301.63
2022-11-20T08:18:39.862Z,101313.81
2022-11-20T08:21:25.934Z,101298.22
2022-11-20T08:24:04.875Z,101309.53
2022-11-20T08:26:49.669Z,101312.63
2022-11-20T08:29:54.271Z,101307.84
2022-11-20T08:32:38.432Z,101322.31
2022-11-20T08:35:25.633Z,101317.09
2022-11-20T08:38:16.337Z,101323.13
2022-11-20T08:41:21.959Z,101320.59
2022-11-20T08:44:19.592Z,101311.88
2022-11-20T08:47:18.133Z,101324.28
2022-11-20T08:56:15.424Z,101310.09
2022-11-20T08:59:44.017Z,101300.75
2022-11-20T09:02:19.226Z,101300.78
2022-11-20T09:08:18.670Z,101292.16
2022-11-20T09:11:22.523Z,101292.88
2022-11-20T09:14:16.738Z,101287.53
2022-11-20T09:17:04.427Z,101285.56
2022-11-20T09:19:55.641Z,101292.38
2022-11-20T09:22:44.259Z,101280.19
2022-11-20T09:25:38.409Z,101276.66
2022-11-20T09:32:17.355Z,101283.59
2022-11-20T09:34:55.905Z,101284.56
2022-11-20T09:37:31.339Z,101276.13
2022-11-20T09:40:15.707Z,101272.81
2022-11-20T09:42:59.500Z,101252.84
2022-11-20T09:45:51.489Z,101264.31
2022-11-20T09:49:13.116Z,101218.09
2022-11-20T09:52:08.103Z,101263.84
2022-11-20T09:54:46.398Z,101262.19
2022-11-20T09:57:45.086Z,101255.47
2022-11-20T10:00:26.764Z,101239.97
2022-11-20T10:03:12.474Z,101261.19
2022-11-20T10:06:08.467Z,101254.28
2022-11-20T10:09:10.569Z,101251.91
2022-11-20T10:12:33.416Z,101249.56
2022-11-20T10:15:50.803Z,101235.06
2022-11-20T10:22:21.140Z,101232.84
2022-11-20T10:25:32.742Z,101233.00
2022-11-20T10:28:39.673Z,101221.75
2022-11-20T10:31:27.380Z,101240.03
2022-11-20T10:34:26.992Z,101206.81
2022-11-20T10:37:11.635Z,101219.34
2022-11-20T10:40:06.026Z,101210.69
2022-11-20T10:43:00.152Z,101215.09
2022-11-20T10:46:06.414Z,101203.66
2022-11-20T10:48:58.833Z,101203.66
2022-11-20T10:51:45.977Z,101207.44
2022-11-20T10:54:39.917Z,101207.59
2022-11-20T10:57:35.150Z,101186.75
2022-11-20T11:00:27.961Z,101198.16
2022-11-20T11:03:14.366Z,101193.13
2022-11-20T11:06:10.535Z,101192.25
2022-11-20T11:09:16.451Z,101184.44
2022-11-20T11:12:06.843Z,101179.47
2022-11-20T11:15:14.912Z,101184.72
2022-11-20T11:18:04.854Z,101191.75
2022-11-20T11:20:43.855Z,101176.22
2022-11-20T11:23:50.372Z,101175.41
2022-11-20T11:26:33.138Z,101160.56
2022-11-20T11:29:14.480Z,101169.25
2022-11-20T11:35:09.445Z,101158.00
2022-11-20T11:41:15.163Z,101156.16
2022-11-20T11:44:18.309Z,101152.66
2022-11-20T11:50:33.548Z,101153.84
2022-11-20T11:53:22.739Z,101151.22
2022-11-20T11:56:22.354Z,101148.66
2022-11-20T11:59:04.850Z,101138.44
2022-11-20T12:02:01.999Z,101150.44
2022-11-20T12:04:59.323Z,101126.91
2022-11-20T12:08:17.944Z,101097.78
2022-11-20T12:11:13.367Z,101143.22
2022-11-20T12:14:02.416Z,101138.00
2022-11-20T12:16:45.939Z,101133.63
2022-11-20T12:19:52.084Z,101137.13
2022-11-20T12:22:52.584Z,101131.91
2022-11-20T12:25:49.070Z,101130.06
2022-11-20T12:29:21.995Z,101127.41
2022-11-20T12:32:42.762Z,101126.41
2022-11-20T12:35:47.091Z,101119.56
2022-11-20T12:42:25.976Z,101099.69
2022-11-20T12:45:47.724Z,101099.78
2022-11-20T12:49:07.430Z,101107.56
2022-11-20T12:52:10.681Z,101098.97
2022-11-20T12:55:34.703Z,101095.56
2022-11-20T12:58:28.510Z,101100.75
2022-11-20T13:01:45.289Z,101087.72
2022-11-20T13:04:44.444Z,101083.34
2022-11-20T13:10:44.053Z,101079.84
2022-11-20T13:13:28.328Z,101078.00
2022-11-20T13:19:33.310Z,101058.69
2022-11-20T13:22:20.079Z,101058.38
2022-11-20T13:25:15.170Z,101072.09
2022-11-20T13:28:09.935Z,101061.69
2022-11-20T13:31:08.618Z,101068.84
2022-11-20T13:34:04.206Z,101079.38
2022-11-20T13:37:08.238Z,101073.28
2022-11-20T13:39:58.052Z,101066.22
2022-11-20T13:42:59.774Z,101059.25
2022-11-20T13:45:45.237Z,101051.38
2022-11-20T13:49:07.153Z,101048.84
2022-11-20T13:52:01.830Z,101023.09
2022-11-20T13:55:21.235Z,101050.34
2022-11-20T13:58:23.967Z,101043.66
2022-11-20T14:01:19.590Z,101042.06
2022-11-20T14:04:07.195Z,101044.69
2022-11-20T14:07:10.014Z,101048.91
2022-11-20T14:10:03.575Z,101043.59
2022-11-20T14:12:47.888Z,100989.41
2022-11-20T14:16:17.916Z,101012.22
2022-11-20T14:18:46.793Z,101013.50
2022-11-20T14:21:57.731Z,100991.41
2022-11-20T14:24:36.565Z,100996.19
2022-11-20T14:30:34.293Z,100993.03
2022-11-20T14:33:12.029Z,100985.34
2022-11-20T14:35:56.491Z,100996.69
2022-11-20T14:38:52.849Z,100984.72
2022-11-20T14:41:34.158Z,100950.00
2022-11-20T14:44:33.901Z,100973.16
2022-11-20T14:47:18.703Z,100962.91
2022-11-20T14:50:19.970Z,100968.97
2022-11-20T14:53:02.886Z,100962.03
2022-11-20T14:56:14.032Z,100961.22
2022-11-20T14:58:52.229Z,100938.75
2022-11-20T15:01:46.526Z,100954.31
2022-11-20T15:04:26.874Z,100914.19
2022-11-20T15:07:18.715Z,100945.50
2022-11-20T15:10:14.427Z,100956.88
2022-11-20T15:13:12.727Z,100956.84
2022-11-20T15:16:13.859Z,100954.22
2022-11-20T15:18:58.553Z,100961.19
2022-11-20T15:21:43.917Z,100945.53
2022-11-20T15:24:28.943Z,100938.50
2022-11-20T15:27:09.109Z,100950.72
2022-11-20T15:30:00.600Z,100952.34
2022-11-20T15:32:50.542Z,100956.56
2022-11-20T15:35:38.018Z,100955.63
2022-11-20T15:38:21.738Z,100952.09
2022-11-20T15:41:01.458Z,100950.25
2022-11-20T15:43:49.143Z,100945.84
2022-11-20T15:46:52.467Z,100950.94
2022-11-20T15:49:52.235Z,100944.75
2022-11-20T15:52:44.507Z,100939.47
2022-11-20T15:55:28.538Z,100934.31
2022-11-20T15:58:11.535Z,100936.03
2022-11-20T16:00:48.961Z,100939.47
2022-11-20T16:04:01.324Z,100939.38
2022-11-20T16:06:40.125Z,100937.66
2022-11-20T16:09:18.749Z,100928.06
2022-11-20T16:11:57.532Z,100913.41
2022-11-20T16:14:58.889Z,100926.34
2022-11-20T16:17:47.627Z,100930.66
2022-11-20T16:23:26.802Z,100925.38
2022-11-20T16:26:21.528Z,100884.28
2022-11-20T16:29:00.231Z,100921.66
2022-11-20T16:31:52.952Z,100919.94
2022-11-20T16:34:41.335Z,100921.88
2022-11-20T16:37:35.297Z,100901.31
2022-11-20T16:40:37.499Z,100911.09
2022-11-20T16:46:23.046Z,100908.81
2022-11-20T16:52:17.123Z,100927.69
2022-11-20T16:55:04.590Z,100933.50
2022-11-20T16:57:56.778Z,100945.03
2022-11-20T17:00:51.426Z,100928.16
2022-11-20T17:03:48.728Z,100938.41
2022-11-20T17:06:51.318Z,100938.34
2022-11-20T17:09:45.709Z,100937.38
2022-11-20T17:15:45.298Z,100934.63
2022-11-20T17:18:38.794Z,100921.81
2022-11-20T17:21:32.276Z,100919.59
2022-11-20T17:24:18.940Z,100902.47
2022-11-20T17:27:05.474Z,100906.16
2022-11-20T17:32:54.731Z,100902.03
2022-11-20T17:35:49.903Z,100899.47
2022-11-20T17:38:27.693Z,100893.53
2022-11-20T17:41:16.166Z,100869.28
2022-11-20T17:43:55.348Z,100899.78
2022-11-20T17:46:45.119Z,100891.19
2022-11-20T17:49:41.573Z,100882.50
2022-11-20T17:52:27.875Z,100875.63
2022-11-20T17:55:25.902Z,100874.75
2022-11-20T17:58:10.747Z,100872.19
2022-11-20T18:00:54.406Z,100873.84
2022-11-20T18:03:45.971Z,100860.88
2022-11-20T18:06:33.088Z,100868.56
2022-11-20T18:09:48.006Z,100849.44
2022-11-20T18:12:42.830Z,100864.25
2022-11-20T18:15:28.515Z,100858.22
2022-11-20T18:18:16.667Z,100847.84
2022-11-20T18:21:05.190Z,100848.75
2022-11-20T18:23:56.737Z,100846.22
2022-11-20T18:26:52.231Z,100846.28
2022-11-20T18:29:29.616Z,100849.75
2022-11-20T18:32:15.951Z,100851.59
2022-11-20T18:35:13.823Z,100858.47
2022-11-20T18:37:57.403Z,100853.31
2022-11-20T18:40:42.745Z,100849.88
2022-11-20T18:43:40.263Z,100847.28
2022-11-20T18:46:16.040Z,100843.88
2022-11-20T18:48:55.185Z,100832.75
2022-11-20T18:51:33.245Z,100836.28
2022-11-20T18:54:34.481Z,100819.91
2022-11-20T18:57:14.601Z,100834.56
2022-11-20T19:00:06.416Z,100837.19
2022-11-20T19:03:04.015Z,100832.06
2022-11-20T19:06:13.726Z,100821.78
2022-11-20T19:09:00.224Z,100822.63
2022-11-20T19:12:02.680Z,100817.47
2022-11-20T19:14:52.598Z,100814.88
2022-11-20T19:17:31.909Z,100814.19
2022-11-20T19:20:23.281Z,100803.81
2022-11-20T19:23:26.872Z,100812.47
2022-11-20T19:26:30.151Z,100815.97
2022-11-20T19:29:25.049Z,100807.19
2022-11-20T19:32:20.345Z,100817.66
2022-11-20T19:34:56.856Z,100815.00
2022-11-20T19:37:34.593Z,100812.38
2022-11-20T19:40:27.863Z,100815.78
2022-11-20T19:43:16.367Z,100813.19
2022-11-20T19:46:09.313Z,100810.63
2022-11-20T19:49:05.478Z,100805.38
2022-11-20T19:51:45.163Z,100794.19
2022-11-20T19:54:22.975Z,100800.41
2022-11-20T19:57:06.249Z,100798.78
2022-11-20T19:59:59.230Z,100797.97
2022-11-20T20:02:49.007Z,100802.34
2022-11-20T20:05:29.890Z,100802.34
2022-11-20T20:08:06.416Z,100804.09
2022-11-20T20:10:44.559Z,100804.09
2022-11-20T20:13:30.091Z,100798.00
2022-11-20T20:16:16.206Z,100812.75
2022-11-20T20:19:03.735Z,100811.84
2022-11-20T20:21:50.123Z,100819.31
2022-11-20T20:24:49.336Z,100822.03
2022-11-20T20:27:38.529Z,100818.50
2022-11-20T20:30:24.900Z,100759.25
2022-11-20T20:33:02.661Z,100815.78
2022-11-20T20:38:42.258Z,100810.63
2022-11-20T20:41:30.587Z,100807.19
2022-11-20T20:44:24.092Z,100802.09
2022-11-20T20:47:28.862Z,100809.03
2022-11-20T20:50:14.006Z,100803.94
2022-11-20T20:53:01.643Z,100803.84
2022-11-20T20:55:46.946Z,100804.66
2022-11-20T20:58:36.578Z,100810.78
2022-11-20T21:01:39.204Z,100807.19
2022-11-20T21:04:34.110Z,100817.69
2022-11-20T21:07:18.911Z,100819.38
2022-11-20T21:10:04.292Z,100821.13
2022-11-20T21:12:58.074Z,100824.63
2022-11-20T21:15:40.635Z,100815.13
2022-11-20T21:18:22.633Z,100819.50
2022-11-20T21:21:19.674Z,100829.84
2022-11-20T21:23:59.583Z,100818.59
2022-11-20T21:26:59.367Z,100827.22
2022-11-20T21:29:38.785Z,100801.66
2022-11-20T21:32:27.393Z,100815.84
2022-11-20T21:35:32.074Z,100815.72
2022-11-20T21:38:14.740Z,100821.69
2022-11-20T21:40:54.891Z,100815.53
2022-11-20T21:44:23.575Z,100806.88
2022-11-20T21:47:10.355Z,100812.06
2022-11-20T21:50:12.350Z,100810.28
2022-11-20T21:52:57.216Z,100809.38
2022-11-20T21:55:49.456Z,100817.97
2022-11-20T21:58:40.196Z,100815.25
2022-11-20T22:04:34.444Z,100832.56
2022-11-20T22:07:36.033Z,100835.97
2022-11-20T22:10:21.466Z,100834.25
2022-11-20T22:13:28.101Z,100847.19
2022-11-20T22:16:11.250Z,100843.78
2022-11-20T22:19:01.620Z,100835.97
2022-11-20T22:21:35.679Z,100797.75
2022-11-20T22:24:27.192Z,100842.28
2022-11-20T22:27:10.484Z,100839.81
2022-11-20T22:30:14.061Z,100853.66
2022-11-20T22:33:13.277Z,100852.91
2022-11-20T22:35:53.610Z,100840.84
2022-11-20T22:38:56.919Z,100850.38
2022-11-20T22:41:56.289Z,100840.81
2022-11-20T22:47:55.373Z,100831.47
2022-11-20T22:51:03.620Z,100845.38
2022-11-20T22:53:51.774Z,100848.97
2022-11-20T22:59:16.008Z,100848.97
2022-11-20T23:02:30.224Z,100851.47
2022-11-20T23:05:09.475Z,100849.69
2022-11-20T23:07:48.237Z,100843.50
2022-11-20T23:10:42.811Z,100841.84
2022-11-20T23:13:29.744Z,100847.91
2022-11-20T23:16:14.029Z,100842.78
2022-11-20T23:19:10.416Z,100807.06
2022-11-20T23:21:49.111Z,100850.72
2022-11-20T23:24:46.152Z,100843.84
2022-11-20T23:27:28.399Z,100839.66
2022-11-20T23:30:16.710Z,100823.28
2022-11-20T23:32:54.665Z,100835.53
2022-11-20T23:35:41.183Z,100827.06
2022-11-20T23:38:19.696Z,100832.38
2022-11-20T23:40:56.488Z,100841.00
2022-11-20T23:43:48.034Z,100845.41
2022-11-20T23:46:45.667Z,100834.13
2022-11-20T23:49:22.759Z,100843.50
2022-11-20T23:52:06.310Z,100848.56
2022-11-20T23:55:31.432Z,100861.41
2022-11-20T23:58:13.914Z,100851.91
